Time;durP1;ratioP1;P1;durP2;ratioP2;P2;SDS_P1;SDS_P2;PMS_P1;PMS_P2;Temp;Humidity;BMP_temperature;BMP_pressure;BME280_temperature;BME280_humidity;BME280_pressure;Samples;Min_cycle;Max_cycle;Signal;HPM_P1;HPM_P2
2022/05/04 00:01:01;;;;;;;10.27;3.53;;;13.40;67.00;;;;;;5103915;28;20514;-61
2022/05/04 00:03:27;;;;;;;5.00;3.38;;;13.40;67.00;;;;;;5103431;28;20398;-61
2022/05/04 00:05:52;;;;;;;7.47;3.83;;;13.30;67.00;;;;;;5113028;28;20028;-61
2022/05/04 00:08:18;;;;;;;4.30;3.53;;;13.30;67.10;;;;;;5104876;28;20496;-62
2022/05/04 00:10:44;;;;;;;4.13;3.72;;;13.30;67.10;;;;;;5100854;28;20036;-61
2022/05/04 00:13:10;;;;;;;5.60;3.67;;;13.30;67.20;;;;;;5101453;28;20031;-61
2022/05/04 00:15:36;;;;;;;3.72;3.33;;;13.30;67.30;;;;;;5102490;28;20047;-61
2022/05/04 00:18:02;;;;;;;5.55;3.90;;;13.20;67.30;;;;;;5096821;28;20153;-61
2022/05/04 00:20:28;;;;;;;4.30;3.35;;;13.20;67.30;;;;;;5104615;28;20079;-61
2022/05/04 00:22:54;;;;;;;5.45;3.60;;;13.20;67.40;;;;;;5106395;28;20035;-61
2022/05/04 00:25:19;;;;;;;6.53;3.60;;;13.20;67.40;;;;;;5104628;28;20016;-61
2022/05/04 00:27:45;;;;;;;4.85;3.17;;;13.20;67.40;;;;;;5109041;28;20041;-61
2022/05/04 00:30:11;;;;;;;5.47;3.65;;;13.20;67.40;;;;;;5108601;28;20034;-61
2022/05/04 00:32:36;;;;;;;5.80;3.58;;;13.10;67.40;;;;;;5104644;28;20066;-62
2022/05/04 00:35:02;;;;;;;4.03;3.63;;;13.10;67.40;;;;;;5098192;28;20029;-61
2022/05/04 00:37:28;;;;;;;4.15;3.60;;;13.10;67.50;;;;;;5099618;28;20016;-61
2022/05/04 00:39:54;;;;;;;5.85;4.00;;;13.10;67.60;;;;;;5099513;28;20032;-62
2022/05/04 00:42:21;;;;;;;4.70;4.20;;;13.10;67.70;;;;;;5111629;28;20043;-62
2022/05/04 00:44:51;;;;;;;5.43;3.42;;;13.10;67.70;;;;;;5107121;28;20031;-60
2022/05/04 00:47:18;;;;;;;4.35;3.38;;;13.10;67.50;;;;;;5105291;28;20029;-60
2022/05/04 00:49:49;;;;;;;6.15;3.70;;;13.00;67.40;;;;;;5107900;28;20059;-60
2022/05/04 00:52:16;;;;;;;4.80;3.53;;;13.00;67.60;;;;;;5109564;28;20023;-60
2022/05/04 00:54:43;;;;;;;6.13;3.85;;;13.00;67.70;;;;;;5097752;28;20047;-62
2022/05/04 00:57:11;;;;;;;7.45;3.97;;;12.90;67.90;;;;;;5099302;28;20054;-60
2022/05/04 00:59:38;;;;;;;7.50;4.10;;;12.90;67.60;;;;;;5103850;28;20035;-60
2022/05/04 01:02:04;;;;;;;4.38;3.90;;;12.90;67.70;;;;;;5105631;28;20031;-60
2022/05/04 01:04:30;;;;;;;8.82;4.05;;;12.80;68.00;;;;;;5102743;28;20053;-61
2022/05/04 01:06:56;;;;;;;5.22;3.78;;;12.80;68.20;;;;;;5109601;28;20038;-61
2022/05/04 01:09:22;;;;;;;6.78;3.78;;;12.80;68.30;;;;;;5099488;28;20020;-60
2022/05/04 01:11:48;;;;;;;4.18;3.47;;;12.80;68.40;;;;;;5108055;28;20028;-61
2022/05/04 01:14:15;;;;;;;4.70;3.70;;;12.80;68.30;;;;;;5100524;28;20036;-60
2022/05/04 01:16:43;;;;;;;5.30;4.03;;;12.70;68.20;;;;;;5105788;28;20026;-60
2022/05/04 01:19:10;;;;;;;5.20;4.00;;;12.70;68.40;;;;;;5100340;28;20537;-61
2022/05/04 01:21:36;;;;;;;5.88;4.00;;;12.70;68.50;;;;;;5104901;28;20621;-60
2022/05/04 01:24:03;;;;;;;4.35;3.75;;;12.70;68.40;;;;;;5101586;28;20048;-60
2022/05/04 01:26:28;;;;;;;6.60;4.10;;;12.70;68.30;;;;;;5095716;28;20021;-61
2022/05/04 01:28:54;;;;;;;5.60;4.22;;;12.70;68.20;;;;;;5103493;28;20035;-61
2022/05/04 01:31:20;;;;;;;6.13;4.50;;;12.70;68.30;;;;;;5096965;28;20119;-60
2022/05/04 01:33:46;;;;;;;7.78;3.95;;;12.70;68.30;;;;;;5104336;28;20093;-60
2022/05/04 01:36:11;;;;;;;12.68;4.20;;;12.70;68.40;;;;;;5103511;28;20020;-60
2022/05/04 01:38:37;;;;;;;7.88;3.85;;;12.70;68.40;;;;;;5097746;28;20031;-61
2022/05/04 01:41:03;;;;;;;4.88;3.33;;;12.70;68.50;;;;;;5101747;28;20036;-62
2022/05/04 01:43:30;;;;;;;7.35;3.88;;;12.70;68.50;;;;;;5093652;28;20043;-61
2022/05/04 01:45:56;;;;;;;5.85;3.55;;;12.70;68.50;;;;;;5103725;28;20383;-61
2022/05/04 01:48:23;;;;;;;7.22;3.65;;;12.70;68.60;;;;;;5100824;28;20039;-61
2022/05/04 01:50:49;;;;;;;4.05;3.65;;;12.70;68.70;;;;;;5106056;28;20090;-61
2022/05/04 01:53:14;;;;;;;7.70;4.13;;;12.70;68.70;;;;;;5107770;28;20470;-61
2022/05/04 01:55:41;;;;;;;5.10;3.80;;;12.70;68.70;;;;;;5109861;28;20033;-60
2022/05/04 01:58:07;;;;;;;7.38;3.85;;;12.70;68.70;;;;;;5101920;28;20067;-62
2022/05/04 02:00:33;;;;;;;5.28;4.18;;;12.70;68.70;;;;;;5105832;28;20036;-61
2022/05/04 02:02:59;;;;;;;5.00;3.60;;;12.70;68.50;;;;;;5111586;28;20016;-60
2022/05/04 02:05:27;;;;;;;10.63;3.78;;;12.70;68.50;;;;;;5093381;28;20063;-60
2022/05/04 02:07:54;;;;;;;4.97;3.78;;;12.70;68.60;;;;;;5101188;28;20035;-62
2022/05/04 02:10:19;;;;;;;5.78;3.35;;;12.60;68.50;;;;;;5112334;28;20110;-61
2022/05/04 02:12:45;;;;;;;5.50;3.50;;;12.60;68.70;;;;;;5114237;28;20028;-60
2022/05/04 02:15:11;;;;;;;5.68;3.75;;;12.60;68.80;;;;;;5096898;28;20433;-61
2022/05/04 02:17:38;;;;;;;4.75;3.67;;;12.60;68.80;;;;;;5105485;28;20031;-60
2022/05/04 02:20:05;;;;;;;6.90;3.33;;;12.60;68.90;;;;;;5110536;28;20086;-60
2022/05/04 02:22:31;;;;;;;5.20;3.30;;;12.60;69.00;;;;;;5102586;28;20023;-61
2022/05/04 02:24:57;;;;;;;3.67;3.38;;;12.60;69.00;;;;;;5099270;28;20024;-60
2022/05/04 02:27:23;;;;;;;6.82;3.60;;;12.60;68.90;;;;;;5110847;28;20015;-60
2022/05/04 02:29:49;;;;;;;5.28;3.63;;;12.70;68.90;;;;;;5106553;28;20054;-60
2022/05/04 02:32:15;;;;;;;5.78;3.83;;;12.70;69.00;;;;;;5098982;28;20120;-60
2022/05/04 02:40:11;;;;;;;4.10;3.45;;;12.70;69.00;;;;;;5098951;28;20082;-61
2022/05/04 02:42:38;;;;;;;4.38;3.30;;;12.60;69.00;;;;;;5106762;28;20035;-60
2022/05/04 02:45:07;;;;;;;5.78;3.70;;;12.60;69.10;;;;;;5101840;28;20103;-62
2022/05/04 02:47:32;;;;;;;7.90;4.10;;;12.60;69.30;;;;;;5103243;28;20027;-61
2022/05/04 02:49:58;;;;;;;6.93;3.58;;;12.60;69.10;;;;;;5109367;28;20068;-60
2022/05/04 02:52:24;;;;;;;3.70;3.22;;;12.60;69.20;;;;;;5102854;28;20028;-60
2022/05/04 02:54:49;;;;;;;7.07;3.40;;;12.70;69.20;;;;;;5101849;28;20055;-60
2022/05/04 02:57:15;;;;;;;8.35;3.47;;;12.70;69.10;;;;;;5109087;28;20036;-60
2022/05/04 02:59:41;;;;;;;5.60;3.55;;;12.60;69.80;;;;;;5106371;28;20510;-60
2022/05/04 03:04:50;;;;;;;5.47;3.55;;;12.70;69.30;;;;;;5100441;28;20049;-60
2022/05/04 03:07:16;;;;;;;3.83;3.42;;;12.60;69.10;;;;;;5109852;28;20031;-60
2022/05/04 03:09:41;;;;;;;5.15;3.47;;;12.60;69.10;;;;;;5094280;28;20034;-60
2022/05/04 03:12:07;;;;;;;4.78;3.85;;;12.60;69.20;;;;;;5106428;28;20028;-60
2022/05/04 03:14:33;;;;;;;6.45;4.05;;;12.60;69.40;;;;;;5110161;28;20060;-61
2022/05/04 03:16:59;;;;;;;4.00;3.65;;;12.60;69.60;;;;;;5110618;28;20031;-61
2022/05/04 03:19:25;;;;;;;4.60;3.65;;;12.60;69.60;;;;;;5088154;28;20036;-60
2022/05/04 03:21:52;;;;;;;4.78;3.67;;;12.60;69.70;;;;;;5098212;28;20027;-59
2022/05/04 03:24:17;;;;;;;8.50;4.38;;;12.60;69.70;;;;;;5102133;28;20494;-60
2022/05/04 03:26:43;;;;;;;3.88;3.45;;;12.60;69.80;;;;;;5109374;28;20012;-60
2022/05/04 03:29:10;;;;;;;5.53;3.95;;;12.60;69.80;;;;;;5101308;28;20024;-61
2022/05/04 03:31:36;;;;;;;5.00;3.70;;;12.60;69.80;;;;;;5101957;28;20020;-60
2022/05/04 03:34:02;;;;;;;4.40;3.42;;;12.60;69.70;;;;;;5109710;28;20024;-61
2022/05/04 03:36:28;;;;;;;5.68;4.15;;;12.70;69.70;;;;;;5107537;28;20031;-61
2022/05/04 03:38:54;;;;;;;8.77;4.07;;;12.70;69.70;;;;;;5103397;28;20087;-60
2022/05/04 03:41:20;;;;;;;4.43;3.95;;;12.70;69.90;;;;;;5102518;28;20383;-60
2022/05/04 03:43:47;;;;;;;3.67;3.33;;;12.70;69.90;;;;;;5101926;28;20055;-61
2022/05/04 03:46:20;;;;;;;6.75;3.83;;;12.70;69.80;;;;;;5096658;28;20411;-60
2022/05/04 03:48:47;;;;;;;4.68;4.18;;;12.70;70.10;;;;;;5109397;28;20100;-61
2022/05/04 03:51:19;;;;;;;9.30;3.83;;;12.70;69.80;;;;;;5109032;28;20012;-60
2022/05/04 03:53:45;;;;;;;6.82;3.90;;;12.70;69.90;;;;;;5109328;28;20024;-62
2022/05/04 03:56:11;;;;;;;4.63;3.70;;;12.70;69.90;;;;;;5112099;28;20474;-60
2022/05/04 03:58:37;;;;;;;4.97;3.78;;;12.70;70.00;;;;;;5116615;28;20036;-60
2022/05/04 04:01:04;;;;;;;5.88;3.72;;;12.70;69.90;;;;;;5110367;28;20039;-61
2022/05/04 04:03:29;;;;;;;4.15;3.75;;;12.70;69.80;;;;;;5105948;28;20046;-60
2022/05/04 04:05:55;;;;;;;4.70;3.65;;;12.70;69.80;;;;;;5101378;28;20039;-60
2022/05/04 04:08:21;;;;;;;4.97;3.50;;;12.70;69.80;;;;;;5099787;28;20024;-61
2022/05/04 04:10:47;;;;;;;4.32;3.63;;;12.70;69.90;;;;;;5100053;28;20501;-60
2022/05/04 04:13:13;;;;;;;4.45;3.63;;;12.70;69.90;;;;;;5100028;28;20024;-60
2022/05/04 04:15:39;;;;;;;5.45;3.80;;;12.70;69.90;;;;;;5100177;28;20099;-61
2022/05/04 04:18:05;;;;;;;5.90;3.75;;;12.70;69.90;;;;;;5095848;28;20028;-61
2022/05/04 04:23:15;;;;;;;8.25;4.40;;;12.70;70.00;;;;;;5098036;28;20038;-59
2022/05/04 04:25:41;;;;;;;6.03;3.50;;;12.80;70.00;;;;;;5096449;28;20020;-60
2022/05/04 04:28:06;;;;;;;5.43;3.67;;;12.80;70.10;;;;;;5100189;28;22608;-60
2022/05/04 04:30:32;;;;;;;3.80;3.35;;;12.80;70.10;;;;;;5099103;28;20118;-60
2022/05/04 04:32:58;;;;;;;9.15;3.72;;;12.80;70.20;;;;;;5105208;28;20075;-61
2022/05/04 04:35:23;;;;;;;7.65;3.97;;;12.80;70.20;;;;;;5100299;28;20031;-60
2022/05/04 04:37:49;;;;;;;5.32;3.70;;;12.80;70.10;;;;;;5105033;28;20031;-60
2022/05/04 04:40:15;;;;;;;6.85;3.40;;;12.80;70.00;;;;;;5101801;28;20047;-60
2022/05/04 04:42:41;;;;;;;4.43;3.13;;;12.80;69.90;;;;;;5103838;28;20027;-60
2022/05/04 04:45:07;;;;;;;5.45;3.13;;;12.90;70.00;;;;;;5105596;28;20027;-61
2022/05/04 04:47:32;;;;;;;5.60;2.88;;;12.90;70.10;;;;;;5102437;28;20053;-60
2022/05/04 04:49:58;;;;;;;7.65;3.28;;;12.90;70.20;;;;;;5100576;28;20044;-60
2022/05/04 04:52:24;;;;;;;6.90;3.40;;;12.90;70.20;;;;;;5107757;28;20061;-61
2022/05/04 04:54:50;;;;;;;4.88;3.22;;;12.90;70.20;;;;;;5096464;28;20072;-61
2022/05/04 04:57:16;;;;;;;3.75;3.42;;;12.90;70.20;;;;;;5107284;28;20028;-60
2022/05/04 04:59:43;;;;;;;4.78;3.78;;;13.00;70.20;;;;;;5096167;28;20060;-60
2022/05/04 05:02:09;;;;;;;7.40;3.88;;;13.00;70.20;;;;;;5097642;28;20383;-60
2022/05/04 05:04:35;;;;;;;6.05;3.92;;;13.00;70.30;;;;;;5100342;28;20028;-60
2022/05/04 05:07:00;;;;;;;7.82;3.83;;;13.00;70.30;;;;;;5098934;28;20016;-61
2022/05/04 05:09:26;;;;;;;4.35;3.42;;;13.10;70.30;;;;;;5103406;28;20023;-61
2022/05/04 05:11:52;;;;;;;6.32;3.88;;;13.10;70.30;;;;;;5099384;28;20024;-60
2022/05/04 05:17:02;;;;;;;6.22;3.85;;;13.20;70.40;;;;;;5093780;28;20115;-61
2022/05/04 05:19:28;;;;;;;5.10;3.45;;;13.20;70.20;;;;;;5103262;28;20043;-61
2022/05/04 05:21:53;;;;;;;4.82;3.38;;;13.30;70.10;;;;;;5102758;28;20936;-61
2022/05/04 05:24:19;;;;;;;22.27;4.45;;;13.30;70.10;;;;;;5103806;28;20024;-60
2022/05/04 05:26:44;;;;;;;4.88;3.70;;;13.40;70.20;;;;;;5105702;28;20371;-60
2022/05/04 05:29:10;;;;;;;6.78;3.67;;;13.40;70.00;;;;;;5108410;28;20049;-62
2022/05/04 05:31:36;;;;;;;6.35;4.07;;;13.40;70.00;;;;;;5107429;28;20031;-61
2022/05/04 05:34:01;;;;;;;8.07;4.10;;;13.50;70.20;;;;;;5100810;28;20052;-60
2022/05/04 05:36:27;;;;;;;9.93;4.32;;;13.60;70.30;;;;;;5099091;28;20032;-61
2022/05/04 05:38:53;;;;;;;6.85;4.10;;;13.60;70.30;;;;;;5096739;28;20028;-62
2022/05/04 05:41:19;;;;;;;6.40;4.43;;;13.70;70.20;;;;;;5109117;28;20039;-60
2022/05/04 05:43:44;;;;;;;6.07;4.30;;;13.70;70.10;;;;;;5099334;28;20023;-60
2022/05/04 05:46:10;;;;;;;5.03;3.75;;;13.80;70.20;;;;;;5103807;28;20020;-60
2022/05/04 05:48:36;;;;;;;6.07;3.50;;;13.90;70.10;;;;;;5106846;28;20087;-61
2022/05/04 05:51:05;;;;;;;8.63;3.80;;;14.00;70.00;;;;;;5104787;28;20111;-61
2022/05/04 05:53:31;;;;;;;5.10;3.70;;;14.10;70.00;;;;;;5104411;28;20020;-61
2022/05/04 05:55:57;;;;;;;5.30;4.05;;;14.20;69.70;;;;;;5106919;28;20095;-61
2022/05/04 05:58:24;;;;;;;7.25;4.13;;;14.30;69.50;;;;;;5107993;28;20024;-61
2022/05/04 06:00:50;;;;;;;7.32;3.72;;;14.40;69.60;;;;;;5107088;28;20036;-60
2022/05/04 06:03:16;;;;;;;8.38;4.05;;;14.50;69.70;;;;;;5108336;28;20030;-61
2022/05/04 06:05:42;;;;;;;10.07;4.00;;;14.60;69.70;;;;;;5111207;28;20043;-61
2022/05/04 06:08:09;;;;;;;5.70;4.07;;;14.70;69.50;;;;;;5109891;28;20028;-60
2022/05/04 06:10:39;;;;;;;5.18;4.00;;;14.80;69.30;;;;;;5106155;28;20083;-60
2022/05/04 06:13:06;;;;;;;6.78;4.22;;;14.80;69.10;;;;;;5106593;28;20023;-62
2022/05/04 06:15:33;;;;;;;6.03;4.40;;;14.90;68.80;;;;;;5103884;28;20035;-61
2022/05/04 06:17:58;;;;;;;8.65;5.07;;;15.00;68.60;;;;;;5107427;28;20089;-60
2022/05/04 06:20:24;;;;;;;6.65;4.70;;;15.00;68.60;;;;;;5114607;28;20035;-61
2022/05/04 06:22:50;;;;;;;8.80;4.70;;;15.20;68.70;;;;;;5106192;28;20033;-61
2022/05/04 06:25:16;;;;;;;6.80;4.70;;;15.20;68.30;;;;;;5101623;28;20024;-61
2022/05/04 06:27:42;;;;;;;7.45;4.88;;;15.30;68.20;;;;;;5102672;28;20027;-61
2022/05/04 06:35:37;;;;;;;5.85;3.78;;;15.60;67.90;;;;;;5097818;28;19953;-61
2022/05/04 06:38:03;;;;;;;8.32;5.07;;;15.70;67.30;;;;;;5108646;28;20036;-61
2022/05/04 06:40:29;;;;;;;9.55;4.85;;;15.80;67.10;;;;;;5111378;28;20047;-61
2022/05/04 06:42:55;;;;;;;7.03;4.55;;;15.90;67.00;;;;;;5103391;28;20868;-61
2022/05/04 06:45:20;;;;;;;9.23;4.70;;;15.90;66.90;;;;;;5104969;28;20048;-61
2022/05/04 06:47:46;;;;;;;8.25;4.70;;;16.00;66.80;;;;;;5103029;28;20032;-61
2022/05/04 06:50:12;;;;;;;9.25;4.65;;;16.10;67.40;;;;;;5106463;28;20099;-61
2022/05/04 06:52:38;;;;;;;7.00;4.78;;;16.20;66.80;;;;;;5095483;28;20036;-61
2022/05/04 06:55:09;;;;;;;6.93;4.97;;;16.30;66.80;;;;;;5109502;28;20101;-61
2022/05/04 06:57:36;;;;;;;8.32;4.97;;;16.40;66.50;;;;;;5110104;28;20016;-61
2022/05/04 07:00:05;;;;;;;9.90;4.60;;;16.60;66.30;;;;;;5106090;28;20059;-61
2022/05/04 07:02:35;;;;;;;6.55;5.00;;;16.70;66.40;;;;;;5099451;28;20032;-60
2022/05/04 07:05:02;;;;;;;6.55;4.45;;;16.80;66.60;;;;;;5108040;28;20075;-61
2022/05/04 07:07:27;;;;;;;8.05;4.50;;;17.00;66.40;;;;;;5102662;28;20028;-61
2022/05/04 07:09:53;;;;;;;6.10;4.40;;;17.00;65.90;;;;;;5091032;28;20490;-61
2022/05/04 07:12:20;;;;;;;7.65;4.35;;;17.10;65.70;;;;;;5102754;28;20036;-62
2022/05/04 07:14:45;;;;;;;8.15;4.65;;;17.20;65.60;;;;;;5092895;28;20024;-61
2022/05/04 07:17:11;;;;;;;9.63;4.78;;;17.30;65.40;;;;;;5105657;28;20386;-61
2022/05/04 07:19:37;;;;;;;7.18;4.40;;;17.40;65.20;;;;;;5094892;28;20189;-61
2022/05/04 07:22:03;;;;;;;7.78;4.63;;;17.50;65.30;;;;;;5107987;28;20038;-60
2022/05/04 07:24:28;;;;;;;6.15;4.70;;;17.60;65.40;;;;;;5106127;28;20085;-61
2022/05/04 07:26:54;;;;;;;6.60;4.65;;;17.80;65.00;;;;;;5104910;28;20027;-61
2022/05/04 07:29:20;;;;;;;5.97;4.68;;;18.00;64.50;;;;;;5101567;28;20020;-61
2022/05/04 07:31:46;;;;;;;6.10;4.63;;;18.10;64.00;;;;;;5109242;28;20084;-61
2022/05/04 07:34:16;;;;;;;7.88;4.53;;;18.20;63.50;;;;;;5104966;28;20091;-61
2022/05/04 07:36:42;;;;;;;7.68;4.63;;;18.30;63.10;;;;;;5111298;28;20039;-61
2022/05/04 07:39:08;;;;;;;10.20;4.85;;;18.50;63.20;;;;;;5102571;28;20047;-61
2022/05/04 07:44:18;;;;;;;6.00;4.15;;;18.80;63.20;;;;;;5100728;28;20087;-61
2022/05/04 07:46:43;;;;;;;7.07;3.88;;;19.00;62.70;;;;;;5101933;28;20486;-61
2022/05/04 07:49:09;;;;;;;7.53;4.32;;;19.20;62.50;;;;;;5105219;28;20890;-61
2022/05/04 07:51:35;;;;;;;6.45;3.67;;;19.40;62.20;;;;;;5104720;28;20023;-61
2022/05/04 07:54:00;;;;;;;4.70;3.95;;;19.50;61.10;;;;;;5100115;28;20089;-61
2022/05/04 07:56:26;;;;;;;6.45;3.05;;;19.70;60.60;;;;;;5109003;28;20039;-61
2022/05/04 07:58:52;;;;;;;4.07;3.15;;;19.80;60.30;;;;;;5101083;28;20041;-61
2022/05/04 08:04:17;;;;;;;9.27;3.00;;;20.20;58.70;;;;;;5109928;28;20078;-60
2022/05/04 08:06:42;;;;;;;4.63;2.75;;;20.30;58.50;;;;;;5104109;28;20099;-61
2022/05/04 08:09:08;;;;;;;3.53;2.70;;;20.40;58.40;;;;;;5100196;28;20024;-61
2022/05/04 08:11:34;;;;;;;4.13;2.92;;;20.40;57.70;;;;;;5105072;28;20028;-62
2022/05/04 08:13:59;;;;;;;6.63;3.05;;;20.40;57.60;;;;;;5105766;28;20097;-62
2022/05/04 08:16:25;;;;;;;4.78;3.00;;;20.50;57.10;;;;;;5096503;28;20032;-61
2022/05/04 08:18:51;;;;;;;6.82;2.95;;;20.50;57.30;;;;;;5101538;28;20030;-61
2022/05/04 08:21:16;;;;;;;5.72;2.95;;;20.50;56.80;;;;;;5099535;28;20091;-62
2022/05/04 08:23:42;;;;;;;4.63;2.30;;;20.50;56.40;;;;;;5104064;28;20045;-61
2022/05/04 08:26:08;;;;;;;3.85;2.70;;;20.50;56.30;;;;;;5104036;28;20370;-62
2022/05/04 08:28:33;;;;;;;4.68;2.72;;;20.50;56.40;;;;;;5108791;28;20032;-62
2022/05/04 08:30:59;;;;;;;3.58;2.28;;;20.50;56.30;;;;;;5091593;28;20039;-61
2022/05/04 08:33:25;;;;;;;3.33;2.55;;;20.50;56.50;;;;;;5101426;28;20012;-62
2022/05/04 08:35:50;;;;;;;3.38;2.30;;;20.50;55.50;;;;;;5096716;28;20497;-61
2022/05/04 08:38:16;;;;;;;3.67;2.20;;;20.60;55.50;;;;;;5108474;28;20034;-61
2022/05/04 08:40:42;;;;;;;5.40;2.30;;;20.60;55.40;;;;;;5108354;28;20050;-62
2022/05/04 08:43:08;;;;;;;3.17;1.90;;;20.60;54.90;;;;;;5100079;28;20075;-62
2022/05/04 08:45:39;;;;;;;3.55;1.77;;;20.60;55.00;;;;;;5097830;28;20062;-62
2022/05/04 08:48:06;;;;;;;4.05;1.90;;;20.70;54.60;;;;;;5096332;28;20036;-62
2022/05/04 08:50:33;;;;;;;5.63;2.55;;;20.90;55.10;;;;;;5104360;28;20044;-61
2022/05/04 08:53:01;;;;;;;3.40;2.60;;;21.00;54.50;;;;;;5101985;28;20028;-62
2022/05/04 08:55:27;;;;;;;3.08;2.17;;;21.20;54.70;;;;;;5098806;28;20032;-62
2022/05/04 08:57:56;;;;;;;4.40;2.67;;;21.40;55.00;;;;;;5099502;28;20021;-62
2022/05/04 09:00:23;;;;;;;2.90;2.38;;;21.60;54.90;;;;;;5104931;28;20091;-62
2022/05/04 09:02:49;;;;;;;5.72;2.50;;;21.80;55.00;;;;;;5108573;28;20022;-62
2022/05/04 09:05:15;;;;;;;4.57;2.88;;;22.00;54.60;;;;;;5108119;28;20015;-62
2022/05/04 09:07:41;;;;;;;3.78;2.83;;;22.20;54.10;;;;;;5103145;28;20039;-62
2022/05/04 09:10:07;;;;;;;3.92;2.50;;;22.40;54.00;;;;;;5105420;28;20031;-61
2022/05/04 09:12:33;;;;;;;3.28;2.97;;;22.60;53.60;;;;;;5108844;28;20049;-62
2022/05/04 09:14:59;;;;;;;4.47;2.58;;;22.70;54.30;;;;;;5097860;28;20035;-61
2022/05/04 09:17:25;;;;;;;6.53;3.10;;;22.90;53.10;;;;;;5107598;28;20107;-62
2022/05/04 09:22:42;;;;;;;6.40;2.63;;;23.20;51.60;;;;;;5107799;28;20027;-63
2022/05/04 09:25:16;;;;;;;4.25;3.22;;;23.40;51.50;;;;;;5102427;28;20103;-63
2022/05/04 09:27:42;;;;;;;3.70;3.03;;;23.50;50.50;;;;;;5108042;28;20082;-61
2022/05/04 09:30:08;;;;;;;10.45;2.83;;;23.60;50.20;;;;;;5106802;28;20020;-62
2022/05/04 09:32:41;;;;;;;4.28;2.60;;;23.70;50.50;;;;;;5094721;28;20028;-61
2022/05/04 09:35:16;;;;;;;2.03;1.83;;;23.70;50.10;;;;;;5098914;28;20857;-61
2022/05/04 09:46:03;;;;;;;2.00;1.17;;;23.40;45.10;;;;;;5096744;28;20034;-61
2022/05/04 09:48:30;;;;;;;2.78;1.40;;;23.00;45.30;;;;;;5094468;28;20052;-62
2022/05/04 09:51:07;;;;;;;2.35;1.20;;;22.60;45.10;;;;;;5094232;28;20020;-61
2022/05/04 09:53:34;;;;;;;1.70;1.20;;;22.20;45.20;;;;;;5094769;28;20040;-62
2022/05/04 09:56:01;;;;;;;2.08;1.13;;;21.90;45.20;;;;;;5106207;28;20364;-61
2022/05/04 09:58:27;;;;;;;2.35;1.30;;;21.60;45.50;;;;;;5111439;28;20462;-62
2022/05/04 10:00:55;;;;;;;3.42;1.20;;;21.30;45.60;;;;;;5100132;28;20024;-62
2022/05/04 10:03:21;;;;;;;5.45;1.10;;;21.00;45.70;;;;;;5103205;28;20020;-61
2022/05/04 10:05:48;;;;;;;2.80;1.10;;;20.70;46.30;;;;;;5101587;28;20020;-62
2022/05/04 10:08:15;;;;;;;7.63;1.88;;;20.40;47.10;;;;;;5098807;28;20032;-62
2022/05/04 10:10:41;;;;;;;1.70;1.30;;;20.10;48.30;;;;;;5099760;28;20028;-62
2022/05/04 10:13:10;;;;;;;3.05;1.30;;;19.80;49.10;;;;;;5102030;28;20033;-62
2022/05/04 10:15:38;;;;;;;5.28;2.10;;;19.50;50.40;;;;;;5095461;28;20081;-61
2022/05/04 10:18:14;;;;;;;4.63;1.90;;;19.20;51.50;;;;;;5094487;28;20026;-61
2022/05/04 10:20:44;;;;;;;6.55;2.42;;;19.00;53.10;;;;;;5095608;28;20042;-61
2022/05/04 10:23:25;;;;;;;7.28;2.42;;;18.70;53.70;;;;;;5094142;28;20112;-60
2022/05/04 10:25:51;;;;;;;3.65;2.10;;;18.40;53.80;;;;;;5107822;28;20075;-61
2022/05/04 10:28:18;;;;;;;4.68;2.33;;;18.20;54.50;;;;;;5089629;28;20025;-61
2022/05/04 10:30:55;;;;;;;3.13;2.00;;;18.00;55.50;;;;;;5103203;28;20023;-61
2022/05/04 10:33:32;;;;;;;5.40;2.47;;;17.70;56.00;;;;;;5110389;28;20108;-61
2022/05/04 10:36:14;;;;;;;3.30;2.05;;;17.60;57.10;;;;;;5099455;28;20545;-60
2022/05/04 10:38:43;;;;;;;6.88;2.55;;;17.50;57.20;;;;;;5103067;28;20092;-61
2022/05/04 10:41:09;;;;;;;5.57;2.53;;;17.40;57.80;;;;;;5103900;28;20202;-61
2022/05/04 10:43:42;;;;;;;4.38;2.70;;;17.30;58.60;;;;;;5099746;28;20027;-62
2022/05/04 10:46:20;;;;;;;4.05;2.47;;;17.30;59.30;;;;;;5103194;28;20100;-60
2022/05/04 10:48:57;;;;;;;5.95;2.63;;;17.30;61.00;;;;;;5107909;28;20031;-60
2022/05/04 10:51:24;;;;;;;4.82;3.20;;;17.30;60.20;;;;;;5098320;28;20021;-61
2022/05/04 10:53:51;;;;;;;2.65;2.38;;;17.30;60.90;;;;;;5107954;28;20032;-61
2022/05/04 10:56:19;;;;;;;3.45;2.47;;;17.30;60.40;;;;;;5108930;28;20288;-61
2022/05/04 10:58:52;;;;;;;5.63;3.15;;;17.40;60.70;;;;;;5103056;28;20080;-60
2022/05/04 11:01:38;;;;;;;6.25;2.85;;;17.50;62.20;;;;;;5108831;28;20031;-61
2022/05/04 11:04:17;;;;;;;3.92;2.78;;;17.70;62.60;;;;;;5105953;28;20016;-60
2022/05/04 11:06:59;;;;;;;4.75;2.70;;;17.90;63.30;;;;;;5107714;28;20023;-60
2022/05/04 11:09:31;;;;;;;3.13;2.58;;;18.30;63.00;;;;;;5099100;28;20029;-60
2022/05/04 11:11:59;;;;;;;5.07;2.35;;;18.50;61.90;;;;;;5101625;28;20058;-60
2022/05/04 11:14:25;;;;;;;4.22;2.67;;;18.80;61.40;;;;;;5108809;28;20031;-61
2022/05/04 11:16:52;;;;;;;7.00;2.58;;;19.10;61.80;;;;;;5106567;28;20059;-59
2022/05/04 11:19:19;;;;;;;3.53;2.05;;;19.40;61.20;;;;;;5103293;28;20031;-59
2022/05/04 11:21:45;;;;;;;5.03;2.30;;;19.70;61.30;;;;;;5113638;28;20019;-60
2022/05/04 11:24:13;;;;;;;2.53;1.90;;;20.00;59.60;;;;;;5101477;28;20084;-61
2022/05/04 11:26:43;;;;;;;5.28;2.10;;;20.30;59.30;;;;;;5096825;28;20097;-61
2022/05/04 11:29:17;;;;;;;3.53;2.08;;;20.60;59.00;;;;;;5096823;28;20024;-61
2022/05/04 11:31:45;;;;;;;9.82;1.90;;;20.90;59.30;;;;;;5102746;28;20032;-61
2022/05/04 11:34:16;;;;;;;3.70;2.10;;;21.20;59.70;;;;;;5097861;28;20017;-61
2022/05/04 11:36:45;;;;;;;4.75;2.42;;;21.50;58.20;;;;;;5101303;28;20025;-61
2022/05/04 11:39:14;;;;;;;2.45;2.22;;;21.80;57.70;;;;;;5106179;28;20470;-61
2022/05/04 11:41:39;;;;;;;3.88;2.30;;;22.10;56.70;;;;;;5096679;28;20025;-61
2022/05/04 11:44:05;;;;;;;4.53;2.47;;;22.30;55.20;;;;;;5106890;28;20051;-61
2022/05/04 11:46:31;;;;;;;4.53;1.98;;;22.40;54.80;;;;;;5113250;28;20032;-61
2022/05/04 11:48:58;;;;;;;2.85;2.08;;;22.40;54.40;;;;;;5097068;28;20135;-61
2022/05/04 11:51:24;;;;;;;7.93;2.90;;;22.40;53.80;;;;;;5100568;28;20079;-61
2022/05/04 11:53:49;;;;;;;4.85;2.22;;;22.40;54.20;;;;;;5105398;28;20027;-61
2022/05/04 11:56:15;;;;;;;5.57;2.42;;;22.50;53.90;;;;;;5110016;28;20039;-61
2022/05/04 11:58:42;;;;;;;2.58;2.13;;;22.50;53.60;;;;;;5106436;28;20127;-61
2022/05/04 12:01:08;;;;;;;3.25;2.60;;;22.50;53.50;;;;;;5106826;28;20092;-62
2022/05/04 12:03:37;;;;;;;3.25;2.47;;;22.60;52.40;;;;;;5105766;28;20024;-62
2022/05/04 12:06:06;;;;;;;10.45;2.53;;;22.60;52.00;;;;;;5104884;28;20045;-61
2022/05/04 12:08:32;;;;;;;4.80;1.88;;;22.70;51.50;;;;;;5097104;28;20607;-62
2022/05/04 12:10:59;;;;;;;6.20;3.08;;;22.70;51.30;;;;;;5106683;28;20028;-61
2022/05/04 12:13:26;;;;;;;3.10;2.45;;;22.80;51.30;;;;;;5106690;28;20024;-62
2022/05/04 12:15:54;;;;;;;3.28;1.80;;;22.80;50.30;;;;;;5106375;28;20474;-62
2022/05/04 12:18:20;;;;;;;2.42;1.60;;;22.90;51.20;;;;;;5110362;28;20103;-62
2022/05/04 12:20:46;;;;;;;2.85;1.50;;;22.90;49.30;;;;;;5113440;28;20028;-61
2022/05/04 12:23:13;;;;;;;2.75;1.30;;;23.00;48.60;;;;;;5104079;28;20024;-60
2022/05/04 12:25:40;;;;;;;2.08;1.33;;;23.10;48.90;;;;;;5101432;28;20188;-62
2022/05/04 12:28:06;;;;;;;4.25;1.30;;;23.20;48.50;;;;;;5117567;28;20490;-62
2022/05/04 12:33:22;;;;;;;3.22;1.35;;;23.30;45.80;;;;;;5098049;28;20109;-62
2022/05/04 12:35:48;;;;;;;2.80;1.33;;;23.30;46.60;;;;;;5107158;28;20023;-62
2022/05/04 12:38:18;;;;;;;2.40;1.27;;;23.40;46.60;;;;;;5110088;28;20099;-62
2022/05/04 12:40:44;;;;;;;1.55;1.02;;;23.60;47.40;;;;;;5095555;28;20023;-62
2022/05/04 12:43:11;;;;;;;2.55;1.10;;;23.70;48.30;;;;;;5109197;28;20103;-62
2022/05/04 12:45:38;;;;;;;2.20;1.10;;;24.00;46.80;;;;;;5099431;28;20048;-61
2022/05/04 12:48:09;;;;;;;4.68;1.10;;;24.20;45.40;;;;;;5108210;28;20027;-61
2022/05/04 12:50:37;;;;;;;2.03;1.20;;;24.40;44.20;;;;;;5107767;28;20092;-61
2022/05/04 12:53:04;;;;;;;3.35;1.40;;;24.50;43.10;;;;;;5107113;28;20036;-62
2022/05/04 12:58:15;;;;;;;2.55;0.98;;;24.50;41.70;;;;;;5097596;28;20038;-62
2022/05/04 13:00:42;;;;;;;1.70;0.85;;;24.40;42.40;;;;;;5102664;28;20497;-61
2022/05/04 13:03:12;;;;;;;1.95;1.00;;;24.40;42.20;;;;;;5102111;28;20089;-61
2022/05/04 13:05:39;;;;;;;1.92;1.30;;;24.50;41.70;;;;;;5101235;28;20039;-62
2022/05/04 13:08:06;;;;;;;1.83;0.90;;;24.50;40.40;;;;;;5098502;28;20096;-61
2022/05/04 13:10:32;;;;;;;1.88;0.95;;;24.50;40.70;;;;;;5108327;28;20021;-61
2022/05/04 13:12:59;;;;;;;2.70;0.98;;;24.50;40.90;;;;;;5099529;28;20033;-61
2022/05/04 13:15:25;;;;;;;1.73;1.10;;;24.60;42.20;;;;;;5108221;28;20035;-62
2022/05/04 13:17:51;;;;;;;2.15;1.05;;;24.70;41.30;;;;;;5100799;28;20024;-61
2022/05/04 13:20:18;;;;;;;1.92;0.80;;;24.90;41.20;;;;;;5108060;28;20036;-62
2022/05/04 13:22:43;;;;;;;1.05;0.80;;;25.00;40.20;;;;;;5100127;28;20043;-61
2022/05/04 13:25:10;;;;;;;2.47;0.80;;;25.10;39.50;;;;;;5107770;28;20050;-62